Point Vicente — WDB9763 — position and weather

sailwx.info

Track history (hours):
 
Tides and Currents Weather Stations Pressure Air Temp Water Temp Dewpoint Dewpoint Depression Visibility Wind Speed Wind Dir Waves Ship Positions

Point Vicente

Owner: Foss Maritime Company, Seattle, WA. More information available from US FCC via Universal Licensing System and Coast Guard Vessel Documentation Center.

Last reported at 2014-Oct-01 02:15 UTC. Time now 2014-Oct-02 00:22 UTC.
Position N 38°03' W 122°08'.

Length 32 m; draft 4.3 m.

Type: Tug. MMSI: 366982330.

Date/timePositionNaut miles runAvg speedWind from/ knotsBaromVisibWave heightAir tempDewpointWater temp
2014-Oct-01 02:15N 38°03' W 122°08'1 1.4
2014-Oct-01 01:33N 38°02' W 122°09'8 7.6
2014-Oct-01 00:33N 38°03' W 122°19'7 7.1
2014-Sep-30 23:33N 37°59' W 122°26'6 5.7
2014-Sep-30 22:34N 37°54' W 122°23'1 1.1
2014-Sep-30 21:33N 37°55' W 122°22'0 0.0
2014-Sep-30 20:33N 37°55' W 122°22'0 0.0
2014-Sep-30 19:34N 37°55' W 122°22'1 0.9
2014-Sep-30 18:31N 37°54' W 122°22'0 0.0
2014-Sep-30 17:31N 37°54' W 122°22'0 0.0
2014-Sep-30 16:31N 37°54' W 122°22'0 0.0
2014-Sep-30 15:31N 37°54' W 122°22'0 0.0
2014-Sep-30 14:31N 37°54' W 122°22'0 0.0
2014-Sep-30 13:31N 37°54' W 122°22'0 0.0
2014-Sep-30 12:31N 37°54' W 122°22'0 0.0
2014-Sep-30 11:31N 37°54' W 122°22'0 0.0
2014-Sep-30 10:31N 37°54' W 122°22'0 0.0
2014-Sep-30 09:31N 37°54' W 122°22'0 0.0
2014-Sep-30 08:31N 37°54' W 122°22'0 0.0
2014-Sep-30 07:31N 37°54' W 122°22'0 0.0
2014-Sep-30 06:31N 37°54' W 122°22'0 0.0
2014-Sep-30 05:31N 37°54' W 122°22'0 0.0
2014-Sep-30 04:31N 37°54' W 122°22'6 6.3
2014-Sep-30 03:33N 38°00' W 122°24'1110.1
2014-Sep-30 02:31N 38°03' W 122°11'9 8.1
2014-Sep-30 01:26N 38°04' W 122°00'7 2.0
2014-Sep-29 22:13N 38°02' W 122°08'4 6.2
2014-Sep-29 21:33N 38°04' W 122°13'8 8.0
2014-Sep-29 20:33N 38°01' W 122°23'3 3.3
2014-Sep-29 19:34N 37°59' W 122°26'7 7.0
2014-Sep-29 18:33N 37°52' W 122°24'5 5.2
2014-Sep-29 17:33N 37°49' W 122°19'2 1.9
2014-Sep-29 16:33N 37°50' W 122°21'10 9.8
2014-Sep-29 15:33N 37°59' W 122°26'10 9.6
2014-Sep-29 14:33N 38°04' W 122°15'6 5.2
2014-Sep-29 13:29N 38°02' W 122°08'4 4.5
2014-Sep-29 12:33N 38°04' W 122°13'6 6.5
2014-Sep-29 11:33N 38°02' W 122°21'6 6.4
2014-Sep-29 10:33N 37°57' W 122°27'6 5.9
2014-Sep-29 09:33N 37°52' W 122°24'4 3.9
2014-Sep-29 08:33N 37°48' W 122°22'3 2.9
2014-Sep-29 07:33N 37°49' W 122°19'0 0.0
2014-Sep-29 06:33N 37°49' W 122°19'0 0.3
2014-Sep-29 05:34N 37°49' W 122°19'6 6.1
2014-Sep-29 04:33N 37°53' W 122°25'8 8.4
2014-Sep-29 03:33N 38°01' W 122°22'11 9.0
2014-Sep-29 02:22N 38°02' W 122°09'2 0.3
2014-Sep-28 19:33N 38°03' W 122°11'6 6.0
2014-Sep-28 18:33N 38°03' W 122°18'6 6.5
2014-Sep-28 17:34N 37°59' W 122°25'6 6.3
2014-Sep-28 16:33N 37°53' W 122°25'4 4.4
2014-Sep-28 15:34N 37°50' W 122°21'6 6.4
2014-Sep-28 14:33N 37°55' W 122°25'7 7.5
2014-Sep-28 13:34N 38°02' W 122°21'7 6.9
2014-Sep-28 12:32N 38°04' W 122°13'15 2.9
2014-Sep-28 07:08N 38°03' W 121°53'11 4.2
2014-Sep-28 04:26N 38°02' W 122°08'3 3.9
2014-Sep-28 03:32N 38°03' W 122°12'4 4.1
2014-Sep-28 02:33N 38°03' W 122°17'4 4.5
2014-Sep-28 01:33N 38°02' W 122°22'5 4.6
2014-Sep-28 00:32N 37°58' W 122°26'5 5.2
2014-Sep-27 23:33N 37°53' W 122°25'6 5.7
2014-Sep-27 22:33N 37°49' W 122°20'1 1.2
2014-Sep-27 21:33N 37°49' W 122°19'2 2.3
2014-Sep-27 20:33N 37°50' W 122°21'5 4.7
2014-Sep-27 19:33N 37°54' W 122°25'5 5.4
2014-Sep-27 18:33N 37°59' W 122°25'7 6.6
2014-Sep-27 17:33N 38°03' W 122°19'8 8.1
2014-Sep-27 16:33N 38°02' W 122°09'11 8.2
2014-Sep-27 15:11N 38°03' W 121°54'2 0.6
2014-Sep-27 11:09N 38°04' W 121°52'13 6.4
2014-Sep-27 09:08N 38°02' W 122°08'4 6.6
2014-Sep-27 08:31N 38°04' W 122°13'6 6.4
2014-Sep-27 07:33N 38°02' W 122°21'6 6.3
2014-Sep-27 06:33N 37°57' W 122°26'6 6.2
2014-Sep-27 05:33N 37°52' W 122°23'3 2.5
2014-Sep-27 04:33N 37°50' W 122°21'6 6.0
2014-Sep-27 03:33N 37°55' W 122°25'9 8.8
2014-Sep-27 02:33N 38°03' W 122°20'20 8.7
2014-Sep-27 00:15N 38°03' W 121°54'11 3.0
2014-Sep-26 20:31N 38°02' W 122°08'8 8.2
2014-Sep-26 19:33N 38°03' W 122°18'8 7.8
2014-Sep-26 18:33N 37°58' W 122°26'8 7.5
2014-Sep-26 17:33N 37°51' W 122°23'4 3.7
2014-Sep-26 16:34N 37°49' W 122°19'5 5.0
2014-Sep-26 15:33N 37°52' W 122°24'8 7.6
2014-Sep-26 14:33N 37°60' W 122°25'9 8.9
2014-Sep-26 13:32N 38°04' W 122°14'15 7.0
2014-Sep-26 11:20N 38°03' W 121°54'13 2.2
2014-Sep-26 05:23N 38°03' W 122°11'4 4.5
2014-Sep-26 04:33N 38°04' W 122°15'4 4.3
2014-Sep-26 03:34N 38°02' W 122°21'4 4.3
2014-Sep-26 02:33N 37°60' W 122°25'5 4.7
2014-Sep-26 01:33N 37°55' W 122°25'5 5.5
2014-Sep-26 00:33N 37°50' W 122°22'2 2.5
2014-Sep-25 23:33N 37°49' W 122°19'1 0.6
2014-Sep-25 22:33N 37°49' W 122°19'2 2.4
2014-Sep-25 21:33N 37°50' W 122°21'7 7.3
2014-Sep-25 20:33N 37°56' W 122°26'6 6.0
2014-Sep-25 19:33N 38°01' W 122°22'7 7.2
2014-Sep-25 18:33N 38°04' W 122°14'7 1.2
2014-Sep-25 12:30N 38°03' W 122°05'5 5.6
2014-Sep-25 11:33N 38°03' W 122°12'7 7.0
2014-Sep-25 10:33N 38°02' W 122°20'6 6.5
2014-Sep-25 09:33N 37°58' W 122°26'7 6.9
2014-Sep-25 08:34N 37°51' W 122°23'4 3.8
2014-Sep-25 07:33N 37°49' W 122°19'0 0.3
2014-Sep-25 06:33N 37°49' W 122°19'1 0.6
2014-Sep-25 05:33N 37°49' W 122°19'0 0.0
2014-Sep-25 04:33N 37°49' W 122°19'0 0.0
2014-Sep-25 03:33N 37°49' W 122°19'0 0.0
2014-Sep-25 02:33N 37°49' W 122°19'0 0.2
2014-Sep-25 01:33N 37°49' W 122°19'0 0.0
2014-Sep-25 00:33N 37°49' W 122°19'0 0.0
2014-Sep-24 23:33N 37°49' W 122°19'0 0.0
2014-Sep-24 22:33N 37°49' W 122°19'0 0.0
2014-Sep-24 21:33N 37°49' W 122°19'0 0.0
2014-Sep-24 20:33N 37°49' W 122°19'0 0.0
2014-Sep-24 19:33N 37°49' W 122°19'0 0.0
2014-Sep-24 18:33N 37°49' W 122°19'0 0.0
2014-Sep-24 17:33N 37°49' W 122°19'1 1.0
2014-Sep-24 16:34N 37°49' W 122°20'1 1.4
2014-Sep-24 15:33N 37°49' W 122°21'3 3.4
2014-Sep-24 14:33N 37°52' W 122°24'8 7.9
2014-Sep-24 13:33N 37°60' W 122°25'9 9.2
2014-Sep-24 12:33N 38°04' W 122°14'11 7.8
2014-Sep-24 11:11N 38°04' W 122°00'5 6.7
2014-Sep-24 10:30N 38°03' W 121°55'10 1.3
2014-Sep-24 02:11N 38°02' W 122°08'3 4.0
2014-Sep-24 01:29N 38°03' W 122°11'4 4.2
2014-Sep-24 00:33N 38°04' W 122°16'5 4.7
2014-Sep-23 23:33N 38°02' W 122°22'5 4.8
2014-Sep-23 22:34N 37°58' W 122°26'4 4.3
2014-Sep-23 21:33N 37°54' W 122°25'5 5.3
2014-Sep-23 20:34N 37°50' W 122°21'2 2.1
2014-Sep-23 19:33N 37°49' W 122°19'2 2.1
2014-Sep-23 18:33N 37°49' W 122°21'7 6.7
2014-Sep-23 17:34N 37°55' W 122°25'5 5.4
2014-Sep-23 16:33N 38°01' W 122°24'8 7.5
2014-Sep-23 15:33N 38°04' W 122°15'18 4.1
2014-Sep-23 11:07N 38°04' W 121°52'3 5.7
2014-Sep-23 10:33N 38°03' W 121°55'7 6.8
2014-Sep-23 09:29N 38°03' W 122°05'6 6.6
2014-Sep-23 08:31N 38°03' W 122°13'7 7.3
2014-Sep-23 07:32N 38°02' W 122°21'6 6.6
2014-Sep-23 06:33N 37°56' W 122°26'7 6.6
2014-Sep-23 05:33N 37°50' W 122°22'1 0.9
2014-Sep-23 04:33N 37°50' W 122°21'5 5.3
2014-Sep-23 03:33N 37°54' W 122°25'6 6.4
2014-Sep-23 02:33N 38°00' W 122°24'8 8.4
2014-Sep-23 01:33N 38°04' W 122°14'9 7.7
2014-Sep-23 00:20N 38°04' W 122°02'6 7.1
2014-Sep-22 23:31N 38°03' W 121°55'3 0.4
2014-Sep-22 17:32N 38°04' W 121°52'10 3.4
2014-Sep-22 14:33N 38°03' W 122°05'3 3.2
2014-Sep-22 13:33N 38°02' W 122°08'4 3.1
2014-Sep-22 12:25N 38°03' W 122°12'3 3.0
2014-Sep-22 11:33N 38°04' W 122°16'3 3.4
2014-Sep-22 10:33N 38°03' W 122°20'4 3.7
2014-Sep-22 09:33N 38°01' W 122°24'4 3.9
2014-Sep-22 08:33N 37°57' W 122°26'5 5.0
2014-Sep-22 07:33N 37°52' W 122°24'3 3.3
2014-Sep-22 06:33N 37°50' W 122°21'2 2.2
2014-Sep-22 05:33N 37°49' W 122°19'2 1.8
2014-Sep-22 04:33N 37°49' W 122°21'7 6.9
2014-Sep-22 03:33N 37°55' W 122°25'6 6.0
2014-Sep-22 02:33N 38°01' W 122°24'8 7.9
2014-Sep-22 01:32N 38°04' W 122°14'15 7.6
2014-Sep-21 23:31N 38°03' W 121°54'10 1.9
2014-Sep-21 18:10N 38°02' W 122°08'5 6.3
2014-Sep-21 17:27N 38°04' W 122°13'6 6.4
2014-Sep-21 16:33N 38°02' W 122°20'6 6.2
2014-Sep-21 15:34N 37°58' W 122°26'6 6.1
2014-Sep-21 14:34N 37°52' W 122°24'3 3.3
2014-Sep-21 13:34N 37°50' W 122°21'3 3.0
2014-Sep-21 12:33N 37°52' W 122°24'8 7.9
2014-Sep-21 11:33N 37°60' W 122°25'9 8.9
2014-Sep-21 10:33N 38°04' W 122°14'8 7.7
2014-Sep-21 09:33N 38°03' W 122°04'6 6.5
2014-Sep-21 08:33N 38°03' W 121°56'4 4.1
2014-Sep-21 07:33N 38°04' W 121°51'0 0.0
2014-Sep-21 06:21N 38°04' W 121°51'3 3.4
2014-Sep-21 05:30N 38°03' W 121°54'6 6.8
2014-Sep-21 04:33N 38°04' W 122°03'6 5.8
2014-Sep-21 03:26N 38°03' W 122°11'5 5.7
2014-Sep-21 02:33N 38°03' W 122°17'  
Track history (hours):
 
Tides and Currents Weather Stations Pressure Air Temp Water Temp Dewpoint Dewpoint Depression Visibility Wind Speed Wind Dir Waves Ship Positions

Point Vicente

Owner: Foss Maritime Company, Seattle, WA. More information available from US FCC via Universal Licensing System and Coast Guard Vessel Documentation Center.

Last reported at 2014-Oct-01 02:15 UTC. Time now 2014-Oct-02 00:22 UTC.
Position N 38°03' W 122°08'.

Length 32 m; draft 4.3 m.

Type: Tug. MMSI: 366982330.

Date/timePositionNaut miles runAvg speedWind from/ knotsBaromVisibWave heightAir tempDewpointWater temp
2014-Oct-01 02:15N 38°03' W 122°08'1 1.4
2014-Oct-01 01:33N 38°02' W 122°09'8 7.6
2014-Oct-01 00:33N 38°03' W 122°19'7 7.1
2014-Sep-30 23:33N 37°59' W 122°26'6 5.7
2014-Sep-30 22:34N 37°54' W 122°23'1 1.1
2014-Sep-30 21:33N 37°55' W 122°22'0 0.0
2014-Sep-30 20:33N 37°55' W 122°22'0 0.0
2014-Sep-30 19:34N 37°55' W 122°22'1 0.9
2014-Sep-30 18:31N 37°54' W 122°22'0 0.0
2014-Sep-30 17:31N 37°54' W 122°22'0 0.0
2014-Sep-30 16:31N 37°54' W 122°22'0 0.0
2014-Sep-30 15:31N 37°54' W 122°22'0 0.0
2014-Sep-30 14:31N 37°54' W 122°22'0 0.0
2014-Sep-30 13:31N 37°54' W 122°22'0 0.0
2014-Sep-30 12:31N 37°54' W 122°22'0 0.0
2014-Sep-30 11:31N 37°54' W 122°22'0 0.0
2014-Sep-30 10:31N 37°54' W 122°22'0 0.0
2014-Sep-30 09:31N 37°54' W 122°22'0 0.0
2014-Sep-30 08:31N 37°54' W 122°22'0 0.0
2014-Sep-30 07:31N 37°54' W 122°22'0 0.0
2014-Sep-30 06:31N 37°54' W 122°22'0 0.0
2014-Sep-30 05:31N 37°54' W 122°22'0 0.0
2014-Sep-30 04:31N 37°54' W 122°22'6 6.3
2014-Sep-30 03:33N 38°00' W 122°24'1110.1
2014-Sep-30 02:31N 38°03' W 122°11'9 8.1
2014-Sep-30 01:26N 38°04' W 122°00'7 2.0
2014-Sep-29 22:13N 38°02' W 122°08'4 6.2
2014-Sep-29 21:33N 38°04' W 122°13'8 8.0
2014-Sep-29 20:33N 38°01' W 122°23'3 3.3
2014-Sep-29 19:34N 37°59' W 122°26'7 7.0
2014-Sep-29 18:33N 37°52' W 122°24'5 5.2
2014-Sep-29 17:33N 37°49' W 122°19'2 1.9
2014-Sep-29 16:33N 37°50' W 122°21'10 9.8
2014-Sep-29 15:33N 37°59' W 122°26'10 9.6
2014-Sep-29 14:33N 38°04' W 122°15'6 5.2
2014-Sep-29 13:29N 38°02' W 122°08'4 4.5
2014-Sep-29 12:33N 38°04' W 122°13'6 6.5
2014-Sep-29 11:33N 38°02' W 122°21'6 6.4
2014-Sep-29 10:33N 37°57' W 122°27'6 5.9
2014-Sep-29 09:33N 37°52' W 122°24'4 3.9
2014-Sep-29 08:33N 37°48' W 122°22'3 2.9
2014-Sep-29 07:33N 37°49' W 122°19'0 0.0
2014-Sep-29 06:33N 37°49' W 122°19'0 0.3
2014-Sep-29 05:34N 37°49' W 122°19'6 6.1
2014-Sep-29 04:33N 37°53' W 122°25'8 8.4
2014-Sep-29 03:33N 38°01' W 122°22'11 9.0
2014-Sep-29 02:22N 38°02' W 122°09'2 0.3
2014-Sep-28 19:33N 38°03' W 122°11'6 6.0
2014-Sep-28 18:33N 38°03' W 122°18'6 6.5
2014-Sep-28 17:34N 37°59' W 122°25'6 6.3
2014-Sep-28 16:33N 37°53' W 122°25'4 4.4
2014-Sep-28 15:34N 37°50' W 122°21'6 6.4
2014-Sep-28 14:33N 37°55' W 122°25'7 7.5
2014-Sep-28 13:34N 38°02' W 122°21'7 6.9
2014-Sep-28 12:32N 38°04' W 122°13'15 2.9
2014-Sep-28 07:08N 38°03' W 121°53'11 4.2
2014-Sep-28 04:26N 38°02' W 122°08'3 3.9
2014-Sep-28 03:32N 38°03' W 122°12'4 4.1
2014-Sep-28 02:33N 38°03' W 122°17'4 4.5
2014-Sep-28 01:33N 38°02' W 122°22'5 4.6
2014-Sep-28 00:32N 37°58' W 122°26'5 5.2
2014-Sep-27 23:33N 37°53' W 122°25'6 5.7
2014-Sep-27 22:33N 37°49' W 122°20'1 1.2
2014-Sep-27 21:33N 37°49' W 122°19'2 2.3
2014-Sep-27 20:33N 37°50' W 122°21'5 4.7
2014-Sep-27 19:33N 37°54' W 122°25'5 5.4
2014-Sep-27 18:33N 37°59' W 122°25'7 6.6
2014-Sep-27 17:33N 38°03' W 122°19'8 8.1
2014-Sep-27 16:33N 38°02' W 122°09'11 8.2
2014-Sep-27 15:11N 38°03' W 121°54'2 0.6
2014-Sep-27 11:09N 38°04' W 121°52'13 6.4
2014-Sep-27 09:08N 38°02' W 122°08'4 6.6
2014-Sep-27 08:31N 38°04' W 122°13'6 6.4
2014-Sep-27 07:33N 38°02' W 122°21'6 6.3
2014-Sep-27 06:33N 37°57' W 122°26'6 6.2
2014-Sep-27 05:33N 37°52' W 122°23'3 2.5
2014-Sep-27 04:33N 37°50' W 122°21'6 6.0
2014-Sep-27 03:33N 37°55' W 122°25'9 8.8
2014-Sep-27 02:33N 38°03' W 122°20'20 8.7
2014-Sep-27 00:15N 38°03' W 121°54'11 3.0
2014-Sep-26 20:31N 38°02' W 122°08'8 8.2
2014-Sep-26 19:33N 38°03' W 122°18'8 7.8
2014-Sep-26 18:33N 37°58' W 122°26'8 7.5
2014-Sep-26 17:33N 37°51' W 122°23'4 3.7
2014-Sep-26 16:34N 37°49' W 122°19'5 5.0
2014-Sep-26 15:33N 37°52' W 122°24'8 7.6
2014-Sep-26 14:33N 37°60' W 122°25'9 8.9
2014-Sep-26 13:32N 38°04' W 122°14'15 7.0
2014-Sep-26 11:20N 38°03' W 121°54'13 2.2
2014-Sep-26 05:23N 38°03' W 122°11'4 4.5
2014-Sep-26 04:33N 38°04' W 122°15'4 4.3
2014-Sep-26 03:34N 38°02' W 122°21'4 4.3
2014-Sep-26 02:33N 37°60' W 122°25'5 4.7
2014-Sep-26 01:33N 37°55' W 122°25'5 5.5
2014-Sep-26 00:33N 37°50' W 122°22'2 2.5
2014-Sep-25 23:33N 37°49' W 122°19'1 0.6
2014-Sep-25 22:33N 37°49' W 122°19'2 2.4
2014-Sep-25 21:33N 37°50' W 122°21'7 7.3
2014-Sep-25 20:33N 37°56' W 122°26'6 6.0
2014-Sep-25 19:33N 38°01' W 122°22'7 7.2
2014-Sep-25 18:33N 38°04' W 122°14'7 1.2
2014-Sep-25 12:30N 38°03' W 122°05'5 5.6
2014-Sep-25 11:33N 38°03' W 122°12'7 7.0
2014-Sep-25 10:33N 38°02' W 122°20'6 6.5
2014-Sep-25 09:33N 37°58' W 122°26'7 6.9
2014-Sep-25 08:34N 37°51' W 122°23'4 3.8
2014-Sep-25 07:33N 37°49' W 122°19'0 0.3
2014-Sep-25 06:33N 37°49' W 122°19'1 0.6
2014-Sep-25 05:33N 37°49' W 122°19'0 0.0
2014-Sep-25 04:33N 37°49' W 122°19'0 0.0
2014-Sep-25 03:33N 37°49' W 122°19'0 0.0
2014-Sep-25 02:33N 37°49' W 122°19'0 0.2
2014-Sep-25 01:33N 37°49' W 122°19'0 0.0
2014-Sep-25 00:33N 37°49' W 122°19'0 0.0
2014-Sep-24 23:33N 37°49' W 122°19'0 0.0
2014-Sep-24 22:33N 37°49' W 122°19'0 0.0
2014-Sep-24 21:33N 37°49' W 122°19'0 0.0
2014-Sep-24 20:33N 37°49' W 122°19'0 0.0
2014-Sep-24 19:33N 37°49' W 122°19'0 0.0
2014-Sep-24 18:33N 37°49' W 122°19'0 0.0
2014-Sep-24 17:33N 37°49' W 122°19'1 1.0
2014-Sep-24 16:34N 37°49' W 122°20'1 1.4
2014-Sep-24 15:33N 37°49' W 122°21'3 3.4
2014-Sep-24 14:33N 37°52' W 122°24'8 7.9
2014-Sep-24 13:33N 37°60' W 122°25'9 9.2
2014-Sep-24 12:33N 38°04' W 122°14'11 7.8
2014-Sep-24 11:11N 38°04' W 122°00'5 6.7
2014-Sep-24 10:30N 38°03' W 121°55'10 1.3
2014-Sep-24 02:11N 38°02' W 122°08'3 4.0
2014-Sep-24 01:29N 38°03' W 122°11'4 4.2
2014-Sep-24 00:33N 38°04' W 122°16'5 4.7
2014-Sep-23 23:33N 38°02' W 122°22'5 4.8
2014-Sep-23 22:34N 37°58' W 122°26'4 4.3
2014-Sep-23 21:33N 37°54' W 122°25'5 5.3
2014-Sep-23 20:34N 37°50' W 122°21'2 2.1
2014-Sep-23 19:33N 37°49' W 122°19'2 2.1
2014-Sep-23 18:33N 37°49' W 122°21'7 6.7
2014-Sep-23 17:34N 37°55' W 122°25'5 5.4
2014-Sep-23 16:33N 38°01' W 122°24'8 7.5
2014-Sep-23 15:33N 38°04' W 122°15'18 4.1
2014-Sep-23 11:07N 38°04' W 121°52'3 5.7
2014-Sep-23 10:33N 38°03' W 121°55'7 6.8
2014-Sep-23 09:29N 38°03' W 122°05'6 6.6
2014-Sep-23 08:31N 38°03' W 122°13'7 7.3
2014-Sep-23 07:32N 38°02' W 122°21'6 6.6
2014-Sep-23 06:33N 37°56' W 122°26'7 6.6
2014-Sep-23 05:33N 37°50' W 122°22'1 0.9
2014-Sep-23 04:33N 37°50' W 122°21'5 5.3
2014-Sep-23 03:33N 37°54' W 122°25'6 6.4
2014-Sep-23 02:33N 38°00' W 122°24'8 8.4
2014-Sep-23 01:33N 38°04' W 122°14'9 7.7
2014-Sep-23 00:20N 38°04' W 122°02'6 7.1
2014-Sep-22 23:31N 38°03' W 121°55'3 0.4
2014-Sep-22 17:32N 38°04' W 121°52'10 3.4
2014-Sep-22 14:33N 38°03' W 122°05'3 3.2
2014-Sep-22 13:33N 38°02' W 122°08'4 3.1
2014-Sep-22 12:25N 38°03' W 122°12'3 3.0
2014-Sep-22 11:33N 38°04' W 122°16'3 3.4
2014-Sep-22 10:33N 38°03' W 122°20'4 3.7
2014-Sep-22 09:33N 38°01' W 122°24'4 3.9
2014-Sep-22 08:33N 37°57' W 122°26'5 5.0
2014-Sep-22 07:33N 37°52' W 122°24'3 3.3
2014-Sep-22 06:33N 37°50' W 122°21'2 2.2
2014-Sep-22 05:33N 37°49' W 122°19'2 1.8
2014-Sep-22 04:33N 37°49' W 122°21'7 6.9
2014-Sep-22 03:33N 37°55' W 122°25'6 6.0
2014-Sep-22 02:33N 38°01' W 122°24'8 7.9
2014-Sep-22 01:32N 38°04' W 122°14'15 7.6
2014-Sep-21 23:31N 38°03' W 121°54'10 1.9
2014-Sep-21 18:10N 38°02' W 122°08'5 6.3
2014-Sep-21 17:27N 38°04' W 122°13'6 6.4
2014-Sep-21 16:33N 38°02' W 122°20'6 6.2
2014-Sep-21 15:34N 37°58' W 122°26'6 6.1
2014-Sep-21 14:34N 37°52' W 122°24'3 3.3
2014-Sep-21 13:34N 37°50' W 122°21'3 3.0
2014-Sep-21 12:33N 37°52' W 122°24'8 7.9
2014-Sep-21 11:33N 37°60' W 122°25'9 8.9
2014-Sep-21 10:33N 38°04' W 122°14'8 7.7
2014-Sep-21 09:33N 38°03' W 122°04'6 6.5
2014-Sep-21 08:33N 38°03' W 121°56'4 4.1
2014-Sep-21 07:33N 38°04' W 121°51'0 0.0
2014-Sep-21 06:21N 38°04' W 121°51'3 3.4
2014-Sep-21 05:30N 38°03' W 121°54'6 6.8
2014-Sep-21 04:33N 38°04' W 122°03'6 5.8
2014-Sep-21 03:26N 38°03' W 122°11'5 5.7
2014-Sep-21 02:33N 38°03' W 122°17'  

Dump ship's entire track history